Time;durP1;ratioP1;P1;durP2;ratioP2;P2;SDS_P1;SDS_P2;PMS_P1;PMS_P2;Temp;Humidity;BMP_temperature;BMP_pressure;BME280_temperature;BME280_humidity;BME280_pressure;Samples;Min_cycle;Max_cycle;Signal;HPM_P1;HPM_P2
2023/05/26 03:34:55;;;;;;;8.35;4.93;;;;;;;;;;4954677;28;20605;-82
2023/05/26 03:37:21;;;;;;;11.18;5.25;;;;;;;;;;4946625;29;20078;-82
2023/05/26 03:39:46;;;;;;;9.73;6.05;;;;;;;;;;4947538;29;20019;-82
2023/05/26 03:42:11;;;;;;;24.00;8.52;;;;;;;;;;4947109;29;20095;-82
2023/05/26 03:44:37;;;;;;;26.98;11.15;;;;;;;;;;4947411;29;20120;-82
2023/05/26 03:47:02;;;;;;;23.73;10.48;;;;;;;;;;4956550;29;20039;-82
2023/05/26 03:49:27;;;;;;;22.60;10.02;;;;;;;;;;4947141;29;20402;-82
2023/05/26 03:51:53;;;;;;;19.90;9.13;;;;;;;;;;4945620;29;20032;-82
2023/05/26 03:54:18;;;;;;;14.40;6.70;;;;;;;;;;4948973;29;20031;-81
2023/05/26 03:56:43;;;;;;;10.02;5.97;;;;;;;;;;4947228;29;20034;-82
2023/05/26 03:59:09;;;;;;;11.25;6.03;;;;;;;;;;4951310;29;20030;-81
2023/05/26 04:01:36;;;;;;;10.60;5.22;;;;;;;;;;4950095;29;20199;-82
2023/05/26 04:04:02;;;;;;;11.52;5.55;;;;;;;;;;4946175;29;20087;-81
2023/05/26 04:06:27;;;;;;;9.90;4.82;;;;;;;;;;4950412;29;20059;-82
2023/05/26 04:08:53;;;;;;;8.65;4.40;;;;;;;;;;4945296;29;20035;-82
2023/05/26 04:11:18;;;;;;;7.15;4.38;;;;;;;;;;4930313;29;20036;-82
2023/05/26 04:13:44;;;;;;;9.85;4.53;;;;;;;;;;4944437;29;20050;-82
2023/05/26 04:16:10;;;;;;;12.93;4.60;;;;;;;;;;4961598;28;20040;-82
2023/05/26 04:18:40;;;;;;;10.73;3.97;;;;;;;;;;4952601;29;20035;-82
2023/05/26 04:21:05;;;;;;;9.65;4.78;;;;;;;;;;4946591;29;20035;-82
2023/05/26 04:23:30;;;;;;;11.95;4.80;;;;;;;;;;4948394;29;20537;-82
2023/05/26 04:25:56;;;;;;;9.35;4.57;;;;;;;;;;4955091;29;20268;-81
2023/05/26 04:28:21;;;;;;;10.80;4.50;;;;;;;;;;4947499;29;20023;-82
2023/05/26 04:30:47;;;;;;;12.35;4.90;;;;;;;;;;4946849;29;20390;-82
2023/05/26 04:33:13;;;;;;;12.38;5.00;;;;;;;;;;4958503;29;20023;-83
2023/05/26 04:35:38;;;;;;;15.80;4.75;;;;;;;;;;4946442;29;20028;-82
2023/05/26 04:38:04;;;;;;;10.88;4.32;;;;;;;;;;4961078;28;20449;-82
2023/05/26 04:40:32;;;;;;;12.95;4.95;;;;;;;;;;4954396;29;20735;-82
2023/05/26 04:42:58;;;;;;;9.20;4.47;;;;;;;;;;4946192;29;20028;-82
2023/05/26 04:45:24;;;;;;;7.45;4.45;;;;;;;;;;4955773;29;20031;-82
2023/05/26 04:47:49;;;;;;;6.88;3.58;;;;;;;;;;4945502;29;20086;-82
2023/05/26 04:50:16;;;;;;;11.95;4.82;;;;;;;;;;4947677;29;20082;-82
2023/05/26 04:52:42;;;;;;;11.57;4.22;;;;;;;;;;4948669;29;20027;-83
2023/05/26 04:55:08;;;;;;;11.10;5.22;;;;;;;;;;4950623;29;20050;-82
2023/05/26 04:57:34;;;;;;;7.60;4.32;;;;;;;;;;4961950;29;20044;-82
2023/05/26 04:59:59;;;;;;;8.32;4.28;;;;;;;;;;4958949;29;20450;-82
2023/05/26 05:02:24;;;;;;;9.27;4.85;;;;;;;;;;4951301;29;20115;-83
2023/05/26 05:04:50;;;;;;;9.40;4.85;;;;;;;;;;4951492;29;20438;-81
2023/05/26 05:07:16;;;;;;;8.15;4.25;;;;;;;;;;4961481;29;20015;-82
2023/05/26 05:09:41;;;;;;;11.00;5.03;;;;;;;;;;4974011;29;20015;-81
2023/05/26 05:12:06;;;;;;;7.45;4.88;;;;;;;;;;4973560;29;20478;-82
2023/05/26 05:14:35;;;;;;;10.85;4.57;;;;;;;;;;4954490;29;20027;-82
2023/05/26 05:17:00;;;;;;;12.40;4.60;;;;;;;;;;4959130;29;20031;-83
2023/05/26 05:19:26;;;;;;;8.77;4.82;;;;;;;;;;4948685;29;20037;-81
2023/05/26 05:21:51;;;;;;;13.75;4.82;;;;;;;;;;4951709;29;20023;-82
2023/05/26 05:24:17;;;;;;;9.60;4.95;;;;;;;;;;4953304;29;20023;-80
2023/05/26 05:26:42;;;;;;;8.15;4.60;;;;;;;;;;4969723;29;20031;-82
2023/05/26 05:29:08;;;;;;;9.48;4.78;;;;;;;;;;4956624;29;20060;-83
2023/05/26 05:31:33;;;;;;;9.90;4.40;;;;;;;;;;4941896;29;20051;-83
2023/05/26 05:33:59;;;;;;;7.07;4.45;;;;;;;;;;4934730;29;20055;-83
2023/05/26 05:36:24;;;;;;;12.48;4.97;;;;;;;;;;4956005;29;20040;-83
2023/05/26 05:38:50;;;;;;;12.10;5.53;;;;;;;;;;4949322;29;20031;-83
2023/05/26 05:41:15;;;;;;;9.55;4.90;;;;;;;;;;4958058;29;20035;-83
2023/05/26 05:43:41;;;;;;;8.70;4.63;;;;;;;;;;4933638;29;20027;-83
2023/05/26 05:46:06;;;;;;;8.70;5.00;;;;;;;;;;4959712;29;20509;-81
2023/05/26 05:48:31;;;;;;;17.65;5.78;;;;;;;;;;4959694;29;20032;-81
2023/05/26 05:50:57;;;;;;;9.13;5.00;;;;;;;;;;4965300;28;20023;-82
2023/05/26 05:53:24;;;;;;;9.10;4.75;;;;;;;;;;4935034;29;20038;-81
2023/05/26 05:55:49;;;;;;;11.40;4.85;;;;;;;;;;4945856;29;20034;-82
2023/05/26 05:58:15;;;;;;;14.65;5.18;;;;;;;;;;4947593;29;20031;-82
2023/05/26 06:00:40;;;;;;;9.30;4.35;;;;;;;;;;4947133;29;20410;-80
2023/05/26 06:03:09;;;;;;;10.18;5.10;;;;;;;;;;4948016;29;20034;-82
2023/05/26 06:05:36;;;;;;;11.07;4.70;;;;;;;;;;4935853;29;20023;-82
2023/05/26 06:08:02;;;;;;;8.90;5.43;;;;;;;;;;4965014;28;20497;-83
2023/05/26 06:10:27;;;;;;;10.38;5.35;;;;;;;;;;4968825;28;20059;-83
2023/05/26 06:12:52;;;;;;;11.90;4.97;;;;;;;;;;4962687;29;20039;-83
2023/05/26 06:15:18;;;;;;;12.48;4.75;;;;;;;;;;4930087;29;20035;-83
2023/05/26 06:17:44;;;;;;;10.60;4.65;;;;;;;;;;4954999;29;20031;-82
2023/05/26 06:20:10;;;;;;;8.35;5.22;;;;;;;;;;4947709;29;20055;-82
2023/05/26 06:22:36;;;;;;;8.50;4.45;;;;;;;;;;4932311;29;20028;-82
2023/05/26 06:25:03;;;;;;;10.95;5.00;;;;;;;;;;4939686;29;20024;-83
2023/05/26 06:27:28;;;;;;;9.77;4.82;;;;;;;;;;4939794;29;20088;-83
2023/05/26 06:29:53;;;;;;;9.70;5.20;;;;;;;;;;4948520;29;20039;-81
2023/05/26 06:32:19;;;;;;;6.57;4.53;;;;;;;;;;4944641;29;20042;-83
2023/05/26 06:34:45;;;;;;;8.27;4.72;;;;;;;;;;4944208;29;20210;-82
2023/05/26 06:37:10;;;;;;;8.82;4.22;;;;;;;;;;4939046;29;20164;-82
2023/05/26 06:39:35;;;;;;;9.57;4.85;;;;;;;;;;4947918;29;20031;-82
2023/05/26 06:42:01;;;;;;;11.82;4.85;;;;;;;;;;4944073;29;20028;-82
2023/05/26 06:44:26;;;;;;;7.05;4.40;;;;;;;;;;4947073;29;20024;-82
2023/05/26 06:46:51;;;;;;;9.15;4.78;;;;;;;;;;4940030;29;20031;-82
2023/05/26 06:49:17;;;;;;;7.68;4.32;;;;;;;;;;4947256;29;20038;-83
2023/05/26 06:51:42;;;;;;;12.80;5.00;;;;;;;;;;4947510;29;20027;-81
2023/05/26 06:54:07;;;;;;;8.13;4.28;;;;;;;;;;4921394;29;20026;-81
2023/05/26 06:56:33;;;;;;;6.97;3.80;;;;;;;;;;4951383;29;20086;-82
2023/05/26 06:58:58;;;;;;;8.32;4.32;;;;;;;;;;4945228;29;20075;-81
2023/05/26 07:01:23;;;;;;;9.45;4.35;;;;;;;;;;4943450;28;20038;-81
2023/05/26 07:03:49;;;;;;;10.00;4.80;;;;;;;;;;4947739;29;20024;-82
2023/05/26 07:06:15;;;;;;;7.82;3.95;;;;;;;;;;4947174;29;20024;-85
2023/05/26 07:08:40;;;;;;;9.73;4.60;;;;;;;;;;4951148;29;20019;-82
2023/05/26 07:11:06;;;;;;;7.00;4.13;;;;;;;;;;4964061;28;20016;-82
2023/05/26 07:13:32;;;;;;;9.52;4.43;;;;;;;;;;4969504;29;20031;-83
2023/05/26 07:15:57;;;;;;;12.40;4.78;;;;;;;;;;4950148;29;20054;-81
2023/05/26 07:18:22;;;;;;;8.45;4.35;;;;;;;;;;4934075;29;20055;-79
2023/05/26 07:20:48;;;;;;;9.43;4.53;;;;;;;;;;4946017;29;20094;-80
2023/05/26 07:23:13;;;;;;;9.13;4.40;;;;;;;;;;4943351;29;20028;-80
2023/05/26 07:25:38;;;;;;;10.70;4.40;;;;;;;;;;4942650;29;20348;-80
2023/05/26 07:28:04;;;;;;;8.85;4.55;;;;;;;;;;4945568;29;20031;-80
2023/05/26 07:30:29;;;;;;;14.02;5.32;;;;;;;;;;4939546;29;20054;-81
2023/05/26 07:32:54;;;;;;;8.70;4.18;;;;;;;;;;4942057;29;20055;-81
2023/05/26 07:35:20;;;;;;;9.63;4.30;;;;;;;;;;4944137;29;20521;-80
2023/05/26 07:37:46;;;;;;;13.23;4.55;;;;;;;;;;4951013;28;20035;-81
2023/05/26 07:40:12;;;;;;;10.43;4.60;;;;;;;;;;4944155;29;20036;-80
2023/05/26 07:42:37;;;;;;;9.35;4.80;;;;;;;;;;4949157;29;20597;-82
2023/05/26 07:45:03;;;;;;;11.73;4.72;;;;;;;;;;4948720;28;20158;-80
2023/05/26 07:47:31;;;;;;;9.27;4.60;;;;;;;;;;4945438;29;20034;-80
2023/05/26 07:49:57;;;;;;;8.15;4.75;;;;;;;;;;4959200;29;20069;-81
2023/05/26 07:52:23;;;;;;;11.32;3.90;;;;;;;;;;4953368;28;20034;-80
2023/05/26 07:54:48;;;;;;;9.85;4.47;;;;;;;;;;4949872;29;20019;-80
2023/05/26 07:57:13;;;;;;;8.05;3.78;;;;;;;;;;4948220;29;20035;-80
2023/05/26 07:59:38;;;;;;;12.02;4.30;;;;;;;;;;4957780;29;20027;-79
2023/05/26 08:02:04;;;;;;;8.07;3.92;;;;;;;;;;4959505;29;20027;-80
2023/05/26 08:04:29;;;;;;;8.07;4.75;;;;;;;;;;4950752;29;20016;-77
2023/05/26 08:06:55;;;;;;;6.85;4.53;;;;;;;;;;4963632;28;20482;-79
2023/05/26 08:09:20;;;;;;;12.95;4.90;;;;;;;;;;4951149;29;20033;-79
2023/05/26 08:11:46;;;;;;;9.07;4.07;;;;;;;;;;4958920;29;20059;-78
2023/05/26 08:14:11;;;;;;;13.95;5.50;;;;;;;;;;4943769;28;20048;-79
2023/05/26 08:16:39;;;;;;;9.63;4.43;;;;;;;;;;4949126;29;20395;-79
2023/05/26 08:19:05;;;;;;;13.55;4.20;;;;;;;;;;4948954;29;20035;-79
2023/05/26 08:21:31;;;;;;;8.25;4.32;;;;;;;;;;4962715;29;20031;-80
2023/05/26 08:23:56;;;;;;;13.40;4.53;;;;;;;;;;4948770;29;20016;-80
2023/05/26 08:26:21;;;;;;;11.23;4.97;;;;;;;;;;4942331;29;20500;-80
2023/05/26 08:28:50;;;;;;;8.90;4.00;;;;;;;;;;4958534;29;20027;-80
2023/05/26 08:31:15;;;;;;;8.40;4.55;;;;;;;;;;4947430;29;20030;-80
2023/05/26 08:33:41;;;;;;;9.25;4.88;;;;;;;;;;4946184;29;20090;-78
2023/05/26 08:36:12;;;;;;;9.75;4.85;;;;;;;;;;4961050;29;20030;-79
2023/05/26 08:38:38;;;;;;;9.75;4.10;;;;;;;;;;4961696;29;20478;-80
2023/05/26 08:41:07;;;;;;;9.88;5.15;;;;;;;;;;4953761;29;20024;-81
2023/05/26 08:43:45;;;;;;;11.30;4.50;;;;;;;;;;4955184;29;20050;-82
2023/05/26 08:46:12;;;;;;;10.48;4.32;;;;;;;;;;4949814;29;20064;-81
2023/05/26 08:48:39;;;;;;;9.50;4.65;;;;;;;;;;4961353;29;20023;-81
2023/05/26 08:51:07;;;;;;;8.30;4.32;;;;;;;;;;4958793;29;20027;-82
2023/05/26 08:53:33;;;;;;;9.25;4.22;;;;;;;;;;4951497;29;20019;-82
2023/05/26 08:56:00;;;;;;;9.27;4.80;;;;;;;;;;4947020;29;20020;-81
2023/05/26 08:58:26;;;;;;;7.57;4.70;;;;;;;;;;4954828;29;20094;-83
2023/05/26 09:00:52;;;;;;;9.63;4.55;;;;;;;;;;4956948;29;20536;-80
2023/05/26 09:03:17;;;;;;;10.20;4.55;;;;;;;;;;4959792;29;20034;-82
2023/05/26 09:05:44;;;;;;;7.47;4.95;;;;;;;;;;4959840;29;20024;-82
2023/05/26 09:08:12;;;;;;;7.95;4.75;;;;;;;;;;4960014;29;20023;-81
2023/05/26 09:10:38;;;;;;;7.65;3.92;;;;;;;;;;4959440;29;20119;-80
2023/05/26 09:13:08;;;;;;;6.63;4.28;;;;;;;;;;4952251;29;20569;-81
2023/05/26 09:15:37;;;;;;;8.05;4.25;;;;;;;;;;4933833;29;20023;-81
2023/05/26 09:18:13;;;;;;;11.05;4.82;;;;;;;;;;4957494;29;20031;-81
2023/05/26 09:20:48;;;;;;;7.15;4.25;;;;;;;;;;4960275;29;20027;-82
2023/05/26 09:23:20;;;;;;;8.32;4.43;;;;;;;;;;4955662;29;20130;-83
2023/05/26 09:25:47;;;;;;;7.20;4.25;;;;;;;;;;4960410;28;20007;-83
2023/05/26 09:28:14;;;;;;;8.80;4.20;;;;;;;;;;4961924;29;20078;-83
2023/05/26 09:30:44;;;;;;;10.80;4.35;;;;;;;;;;4960256;29;20505;-81
2023/05/26 09:33:12;;;;;;;11.05;4.72;;;;;;;;;;4951956;29;20019;-82
2023/05/26 09:35:39;;;;;;;9.15;4.30;;;;;;;;;;4968191;28;20034;-83
2023/05/26 09:38:06;;;;;;;11.55;4.43;;;;;;;;;;4957775;29;20031;-82
2023/05/26 09:40:32;;;;;;;10.75;4.25;;;;;;;;;;4944181;29;20042;-81
2023/05/26 09:42:58;;;;;;;10.93;4.05;;;;;;;;;;4961511;29;20096;-81
2023/05/26 09:45:24;;;;;;;10.55;4.82;;;;;;;;;;4961219;29;20102;-80
2023/05/26 09:47:57;;;;;;;10.35;4.13;;;;;;;;;;4959831;29;20059;-82
2023/05/26 09:50:24;;;;;;;6.70;4.05;;;;;;;;;;4941912;29;20024;-80
2023/05/26 09:52:49;;;;;;;11.18;4.00;;;;;;;;;;4946437;29;20030;-81
2023/05/26 09:55:16;;;;;;;10.60;4.43;;;;;;;;;;4953152;29;20015;-79
2023/05/26 09:57:46;;;;;;;8.73;4.28;;;;;;;;;;4960168;29;20035;-83
2023/05/26 10:00:16;;;;;;;8.75;4.57;;;;;;;;;;4952551;29;20030;-83
2023/05/26 10:02:42;;;;;;;12.27;5.15;;;;;;;;;;4960106;29;20497;-83
2023/05/26 10:05:08;;;;;;;10.77;4.68;;;;;;;;;;4951438;29;20024;-83
2023/05/26 10:07:34;;;;;;;10.70;4.85;;;;;;;;;;4959539;29;20027;-83
2023/05/26 10:10:03;;;;;;;10.32;4.82;;;;;;;;;;4959972;29;20026;-81
2023/05/26 10:12:31;;;;;;;8.45;4.22;;;;;;;;;;4959484;29;20019;-84
2023/05/26 10:14:56;;;;;;;13.25;5.13;;;;;;;;;;4959501;29;20023;-83
2023/05/26 10:17:23;;;;;;;10.02;4.45;;;;;;;;;;4959338;29;20085;-82
2023/05/26 10:19:49;;;;;;;12.40;4.90;;;;;;;;;;4960298;29;20031;-82
2023/05/26 10:22:23;;;;;;;13.85;4.70;;;;;;;;;;4953419;29;20035;-83
2023/05/26 10:25:09;;;;;;;9.07;4.55;;;;;;;;;;4945699;29;20474;-83
2023/05/26 10:27:43;;;;;;;9.50;3.90;;;;;;;;;;4937801;29;20046;-82
2023/05/26 10:30:15;;;;;;;9.70;4.95;;;;;;;;;;4974163;28;20049;-83
2023/05/26 10:32:41;;;;;;;;;;;;;;;;;;4941736;29;20042;-80
2023/05/26 10:35:23;;;;;;;7.45;4.38;;;;;;;;;;4971023;29;19911;-79
2023/05/26 10:37:54;;;;;;;9.40;4.18;;;;;;;;;;4971911;29;20030;-82
2023/05/26 10:40:50;;;;;;;11.07;4.10;;;;;;;;;;4952189;29;20537;-82
2023/05/26 10:43:24;;;;;;;9.60;3.80;;;;;;;;;;4936815;29;20482;-82
2023/05/26 10:45:54;;;;;;;11.55;4.25;;;;;;;;;;4953855;29;20027;-81
2023/05/26 10:48:20;;;;;;;9.32;4.15;;;;;;;;;;4950789;29;20059;-81
2023/05/26 10:50:55;;;;;;;15.52;3.92;;;;;;;;;;4959559;29;20474;-81
2023/05/26 10:53:25;;;;;;;10.85;4.10;;;;;;;;;;4956084;29;20110;-81
2023/05/26 10:56:02;;;;;;;8.52;4.53;;;;;;;;;;4954326;29;20015;-82
2023/05/26 10:58:35;;;;;;;7.55;4.07;;;;;;;;;;4943323;29;20046;-81
2023/05/26 11:01:08;;;;;;;11.23;4.07;;;;;;;;;;4943175;29;20023;-80
2023/05/26 11:03:41;;;;;;;10.68;3.97;;;;;;;;;;4959617;29;20054;-83
2023/05/26 11:06:33;;;;;;;8.27;3.88;;;;;;;;;;4965937;29;20110;-81
2023/05/26 11:09:02;;;;;;;10.45;4.03;;;;;;;;;;4937478;29;20042;-79
2023/05/26 11:11:29;;;;;;;7.10;3.35;;;;;;;;;;4960968;29;20051;-84
2023/05/26 11:14:06;;;;;;;14.07;3.72;;;;;;;;;;4953960;29;20024;-79
2023/05/26 11:16:35;;;;;;;7.78;3.70;;;;;;;;;;4952975;29;20015;-83
2023/05/26 11:19:09;;;;;;;7.13;3.90;;;;;;;;;;4961513;29;20027;-80
2023/05/26 11:21:35;;;;;;;7.40;3.78;;;;;;;;;;4949676;29;20024;-83
2023/05/26 11:24:02;;;;;;;11.55;4.15;;;;;;;;;;4948328;29;20020;-83
2023/05/26 11:26:32;;;;;;;10.50;3.95;;;;;;;;;;4925782;29;20024;-82
2023/05/26 11:29:03;;;;;;;15.75;4.18;;;;;;;;;;4956729;29;20036;-81
2023/05/26 11:31:29;;;;;;;6.40;3.75;;;;;;;;;;4970186;28;20108;-79
2023/05/26 11:33:55;;;;;;;7.60;3.70;;;;;;;;;;4953206;29;20031;-81
2023/05/26 11:36:22;;;;;;;6.43;3.58;;;;;;;;;;4949797;29;20030;-80
2023/05/26 11:38:54;;;;;;;5.72;3.20;;;;;;;;;;4944473;29;20082;-83
2023/05/26 11:41:21;;;;;;;7.75;4.07;;;;;;;;;;4949412;29;20027;-79
2023/05/26 11:43:47;;;;;;;6.20;3.30;;;;;;;;;;4939776;29;20062;-82
2023/05/26 11:46:16;;;;;;;7.72;3.90;;;;;;;;;;4956876;28;20039;-81
2023/05/26 11:48:42;;;;;;;6.05;3.70;;;;;;;;;;4943484;29;20035;-80
2023/05/26 11:51:09;;;;;;;6.30;3.60;;;;;;;;;;4942570;29;20031;-84
2023/05/26 11:53:36;;;;;;;10.68;3.58;;;;;;;;;;4954138;29;20040;-77
2023/05/26 11:56:09;;;;;;;11.02;4.13;;;;;;;;;;4955897;29;20134;-79
2023/05/26 11:58:41;;;;;;;6.28;3.60;;;;;;;;;;4944217;29;20114;-81
2023/05/26 12:01:08;;;;;;;8.40;4.05;;;;;;;;;;4949464;28;20509;-82
2023/05/26 12:03:36;;;;;;;10.32;3.88;;;;;;;;;;4955422;29;20035;-81
2023/05/26 12:06:22;;;;;;;10.20;3.65;;;;;;;;;;4931767;29;20023;-81
2023/05/26 12:08:59;;;;;;;5.78;3.47;;;;;;;;;;4948147;29;20594;-81
2023/05/26 12:11:33;;;;;;;7.38;3.70;;;;;;;;;;4952913;29;20031;-80
2023/05/26 12:14:03;;;;;;;8.18;3.50;;;;;;;;;;4966373;29;20482;-81
2023/05/26 12:16:31;;;;;;;5.93;3.70;;;;;;;;;;4961779;29;20023;-80
2023/05/26 12:19:08;;;;;;;9.00;3.50;;;;;;;;;;4958418;29;20034;-80
2023/05/26 12:21:41;;;;;;;12.85;3.60;;;;;;;;;;4954030;29;20027;-79
2023/05/26 12:24:07;;;;;;;7.25;3.72;;;;;;;;;;4949026;29;20027;-81
2023/05/26 12:26:32;;;;;;;6.82;3.67;;;;;;;;;;4958159;29;20028;-78
2023/05/26 12:29:26;;;;;;;8.10;3.60;;;;;;;;;;4967381;29;20093;-78
2023/05/26 12:31:52;;;;;;;6.63;3.65;;;;;;;;;;4956388;29;20046;-80
2023/05/26 12:34:19;;;;;;;10.48;3.88;;;;;;;;;;4956672;29;20497;-82
2023/05/26 12:36:45;;;;;;;4.68;2.90;;;;;;;;;;4947246;29;20041;-80
2023/05/26 12:39:12;;;;;;;6.57;3.33;;;;;;;;;;4953684;29;20035;-81
2023/05/26 12:41:40;;;;;;;9.23;3.88;;;;;;;;;;4960820;29;20024;-78
2023/05/26 12:44:05;;;;;;;5.93;3.17;;;;;;;;;;4964212;29;20015;-78
2023/05/26 12:46:31;;;;;;;5.95;3.28;;;;;;;;;;4951542;29;20458;-79
2023/05/26 12:48:57;;;;;;;5.93;3.28;;;;;;;;;;4959510;29;20537;-83
2023/05/26 12:51:24;;;;;;;6.72;3.25;;;;;;;;;;4923931;29;20040;-81
2023/05/26 12:53:49;;;;;;;5.55;3.47;;;;;;;;;;4939823;29;20026;-80
2023/05/26 12:56:16;;;;;;;9.77;5.30;;;;;;;;;;4947695;29;20024;-80
2023/05/26 12:58:41;;;;;;;6.65;3.33;;;;;;;;;;4942430;28;20032;-81
2023/05/26 13:01:10;;;;;;;6.78;3.25;;;;;;;;;;4955492;29;20026;-78
2023/05/26 13:03:37;;;;;;;10.27;3.50;;;;;;;;;;4953969;29;20557;-79
2023/05/26 13:06:03;;;;;;;8.30;3.80;;;;;;;;;;4955087;29;20035;-78
2023/05/26 13:08:29;;;;;;;8.65;3.55;;;;;;;;;;4957909;29;20490;-79
2023/05/26 13:10:55;;;;;;;6.88;3.42;;;;;;;;;;4948364;29;20041;-80
2023/05/26 13:13:21;;;;;;;5.80;3.60;;;;;;;;;;4948162;29;20110;-80
2023/05/26 13:15:46;;;;;;;7.22;3.65;;;;;;;;;;4941397;29;20048;-80
2023/05/26 13:18:12;;;;;;;8.80;2.88;;;;;;;;;;4949769;29;20074;-80
2023/05/26 13:20:37;;;;;;;7.60;3.22;;;;;;;;;;4952686;29;20023;-78
2023/05/26 13:23:03;;;;;;;6.32;3.15;;;;;;;;;;4957243;29;20106;-81
2023/05/26 13:25:28;;;;;;;6.40;3.30;;;;;;;;;;4941299;29;20467;-79
2023/05/26 13:27:54;;;;;;;16.60;3.83;;;;;;;;;;4946416;29;20062;-79
2023/05/26 13:30:20;;;;;;;5.30;3.45;;;;;;;;;;4943403;29;20035;-80
2023/05/26 13:32:45;;;;;;;10.57;3.15;;;;;;;;;;4950776;29;20030;-80
2023/05/26 13:35:10;;;;;;;8.02;3.60;;;;;;;;;;4962356;29;20026;-79
2023/05/26 13:37:35;;;;;;;4.35;2.92;;;;;;;;;;4960652;29;20039;-79
2023/05/26 13:40:01;;;;;;;7.18;3.42;;;;;;;;;;4946189;29;20026;-79
2023/05/26 13:42:26;;;;;;;6.53;3.10;;;;;;;;;;4947452;29;20028;-80
2023/05/26 13:44:52;;;;;;;5.22;3.40;;;;;;;;;;4954915;29;20019;-79
2023/05/26 13:47:17;;;;;;;8.18;2.80;;;;;;;;;;4944457;29;20083;-80
2023/05/26 13:49:43;;;;;;;5.10;2.80;;;;;;;;;;4957521;29;20052;-79
2023/05/26 13:52:08;;;;;;;13.25;3.25;;;;;;;;;;4953466;29;20023;-78
2023/05/26 13:54:34;;;;;;;6.15;3.63;;;;;;;;;;4952684;29;20027;-77
2023/05/26 13:56:59;;;;;;;5.65;3.22;;;;;;;;;;4956318;29;20208;-78
2023/05/26 13:59:24;;;;;;;6.80;3.40;;;;;;;;;;4942096;29;20035;-79
2023/05/26 14:01:50;;;;;;;6.72;3.25;;;;;;;;;;4929347;29;20029;-79
2023/05/26 14:04:15;;;;;;;6.90;3.40;;;;;;;;;;4953407;29;20023;-78
2023/05/26 14:06:40;;;;;;;6.85;3.03;;;;;;;;;;4941965;28;20035;-78
2023/05/26 14:09:07;;;;;;;7.50;3.20;;;;;;;;;;4942459;29;20062;-79
2023/05/26 14:11:37;;;;;;;6.95;3.53;;;;;;;;;;4940456;29;20031;-79
2023/05/26 14:14:02;;;;;;;9.77;3.92;;;;;;;;;;4941141;29;20043;-78
2023/05/26 14:16:28;;;;;;;6.63;3.15;;;;;;;;;;4937253;29;20036;-78
2023/05/26 14:18:53;;;;;;;4.72;3.25;;;;;;;;;;4939478;29;20027;-79
2023/05/26 14:21:18;;;;;;;7.30;3.10;;;;;;;;;;4946416;29;20066;-79
2023/05/26 14:23:44;;;;;;;11.27;3.10;;;;;;;;;;4950582;29;20058;-80
2023/05/26 14:26:09;;;;;;;6.03;3.10;;;;;;;;;;4941959;29;20035;-79
2023/05/26 14:28:35;;;;;;;7.57;3.40;;;;;;;;;;4939482;29;20035;-79
2023/05/26 14:31:00;;;;;;;9.63;3.50;;;;;;;;;;4954952;29;20022;-79
2023/05/26 14:33:25;;;;;;;4.88;3.05;;;;;;;;;;4946438;29;20630;-80
2023/05/26 14:35:54;;;;;;;4.18;2.67;;;;;;;;;;4942167;29;21334;-79
2023/05/26 14:38:21;;;;;;;5.95;3.28;;;;;;;;;;4942022;29;20031;-79
2023/05/26 14:40:46;;;;;;;8.02;3.80;;;;;;;;;;4942370;29;20126;-79
2023/05/26 14:43:11;;;;;;;8.57;3.20;;;;;;;;;;4941756;29;20111;-79
2023/05/26 14:45:37;;;;;;;6.18;3.35;;;;;;;;;;4952708;29;20478;-81
2023/05/26 14:48:02;;;;;;;5.03;3.05;;;;;;;;;;4940539;29;20039;-81
2023/05/26 14:50:27;;;;;;;6.82;3.10;;;;;;;;;;4943111;29;20509;-79
2023/05/26 14:52:53;;;;;;;7.47;3.40;;;;;;;;;;4952224;29;20055;-80
2023/05/26 14:55:18;;;;;;;7.63;3.63;;;;;;;;;;4946592;29;20039;-79
2023/05/26 14:57:43;;;;;;;7.88;3.58;;;;;;;;;;4946753;29;20042;-79
2023/05/26 15:00:09;;;;;;;16.40;3.20;;;;;;;;;;4953165;29;20066;-80
2023/05/26 15:02:34;;;;;;;4.97;3.00;;;;;;;;;;4957195;29;20023;-78
2023/05/26 15:05:00;;;;;;;6.70;3.20;;;;;;;;;;4950387;29;20026;-80
2023/05/26 15:07:25;;;;;;;4.60;2.90;;;;;;;;;;4957752;29;20047;-80
2023/05/26 15:09:50;;;;;;;4.70;3.10;;;;;;;;;;4949586;29;20031;-79
2023/05/26 15:12:17;;;;;;;6.90;3.25;;;;;;;;;;4949806;29;20023;-80
2023/05/26 15:14:43;;;;;;;6.35;3.08;;;;;;;;;;4958074;29;20453;-81
2023/05/26 15:17:13;;;;;;;5.13;2.97;;;;;;;;;;4952346;29;20470;-84
2023/05/26 15:19:38;;;;;;;9.00;3.38;;;;;;;;;;4933369;29;20031;-81
2023/05/26 15:22:04;;;;;;;10.35;3.00;;;;;;;;;;4951956;29;20032;-81
2023/05/26 15:24:30;;;;;;;9.27;3.42;;;;;;;;;;4949187;29;20079;-81
2023/05/26 15:26:55;;;;;;;7.80;3.38;;;;;;;;;;4948932;29;20058;-83
2023/05/26 15:29:20;;;;;;;5.35;3.25;;;;;;;;;;4946869;29;20390;-81
2023/05/26 15:31:46;;;;;;;9.07;2.92;;;;;;;;;;4939911;29;20068;-80
2023/05/26 15:36:37;;;;;;;8.60;3.05;;;;;;;;;;4973377;23;20520;-82
2023/05/26 15:39:02;;;;;;;7.63;3.08;;;;;;;;;;4941813;29;20471;-82
2023/05/26 15:41:28;;;;;;;6.78;3.03;;;;;;;;;;4962444;28;20042;-81
2023/05/26 15:43:54;;;;;;;8.95;3.00;;;;;;;;;;4922873;29;20556;-81
2023/05/26 15:47:01;;;;;;;3.85;2.97;;;;;;;;;;4957348;28;20034;-89
2023/05/26 15:49:26;;;;;;;4.07;2.95;;;;;;;;;;4965880;28;20030;-81
2023/05/26 15:51:52;;;;;;;6.65;3.30;;;;;;;;;;4964527;28;20022;-81
2023/05/26 15:54:17;;;;;;;7.93;3.13;;;;;;;;;;4947867;28;20042;-82
2023/05/26 15:56:43;;;;;;;5.75;3.10;;;;;;;;;;4959788;28;20031;-82
2023/05/26 15:59:09;;;;;;;10.38;2.97;;;;;;;;;;4943806;29;20033;-82
2023/05/26 16:01:35;;;;;;;4.75;3.22;;;;;;;;;;4965756;28;20078;-81
2023/05/26 16:04:01;;;;;;;8.07;3.33;;;;;;;;;;4943490;29;20039;-81
2023/05/26 16:06:36;;;;;;;6.88;2.90;;;;;;;;;;4957161;28;20035;-88
2023/05/26 16:13:09;;;;;;;7.57;3.10;;;;;;;;;;4885176;29;20052;-86
2023/05/26 16:15:55;;;;;;;8.05;3.28;;;;;;;;;;4883353;29;20025;-83
2023/05/26 16:21:52;;;;;;;5.77;3.00;;;;;;;;;;4878575;29;20029;-83
2023/05/26 16:34:32;;;;;;;4.45;2.95;;;;;;;;;;4839694;29;20050;-78
2023/05/26 16:56:45;;;;;;;6.15;3.28;;;;;;;;;;4941520;29;20129;-85
2023/05/26 17:00:07;;;;;;;7.03;3.03;;;;;;;;;;4932606;29;20036;-84
2023/05/26 17:03:11;;;;;;;6.30;2.80;;;;;;;;;;4942092;29;20071;-84
2023/05/26 17:05:49;;;;;;;6.15;3.25;;;;;;;;;;4913617;29;20043;-83
2023/05/26 17:09:13;;;;;;;7.03;3.33;;;;;;;;;;4911782;29;20557;-85
2023/05/26 17:12:44;;;;;;;5.68;3.20;;;;;;;;;;4897476;29;20058;-85
2023/05/26 17:22:47;;;;;;;5.40;3.00;;;;;;;;;;4934647;29;20063;-81
2023/05/26 17:25:13;;;;;;;9.90;3.05;;;;;;;;;;4941687;29;20027;-83
2023/05/26 17:27:39;;;;;;;4.25;2.97;;;;;;;;;;4918302;29;20044;-80
2023/05/26 17:30:05;;;;;;;6.45;3.20;;;;;;;;;;4939389;29;20035;-82
2023/05/26 17:32:55;;;;;;;6.13;3.40;;;;;;;;;;4929220;29;20086;-85
2023/05/26 17:35:21;;;;;;;8.63;3.08;;;;;;;;;;5002048;23;20055;-83
2023/05/26 17:41:25;;;;;;;6.53;2.35;;;;;;;;;;4937934;29;20043;-85
2023/05/26 17:44:03;;;;;;;10.63;3.00;;;;;;;;;;4942328;29;20047;-82
2023/05/26 17:50:58;;;;;;;;;;;;;;;;;;;;;
2023/05/26 18:46:18;;;;;;;4.30;2.60;;;;;;;;;;5102310;23;20532;-83
2023/05/26 18:48:47;;;;;;;5.55;2.50;;;;;;;;;;4963358;28;20019;-84
2023/05/26 18:55:14;;;;;;;6.50;2.88;;;;;;;;;;4960691;28;20073;-84
2023/05/26 19:12:56;;;;;;;4.70;2.55;;;;;;;;;;4953260;29;20064;-84
2023/05/26 19:34:35;;;;;;;4.15;2.40;;;;;;;;;;4909834;29;20051;-85
2023/05/26 19:37:03;;;;;;;5.18;2.97;;;;;;;;;;4910045;29;20056;-85
2023/05/26 20:14:53;;;;;;;8.70;3.28;;;;;;;;;;4930718;29;20467;-81
2023/05/26 20:17:18;;;;;;;6.55;3.78;;;;;;;;;;4932780;29;20040;-82
2023/05/26 20:19:43;;;;;;;6.80;3.10;;;;;;;;;;4939473;29;20020;-79
2023/05/26 20:22:10;;;;;;;14.85;3.90;;;;;;;;;;4948450;29;20075;-81
2023/05/26 20:24:35;;;;;;;7.70;3.40;;;;;;;;;;4914970;29;20141;-80
2023/05/26 20:27:00;;;;;;;5.03;2.75;;;;;;;;;;4925431;29;20038;-81
2023/05/26 20:29:26;;;;;;;12.80;3.10;;;;;;;;;;4935586;29;20056;-81
2023/05/26 20:31:57;;;;;;;6.93;3.08;;;;;;;;;;4932208;29;20082;-86
2023/05/26 20:34:23;;;;;;;11.52;6.53;;;;;;;;;;4906192;29;20055;-83
2023/05/26 20:36:50;;;;;;;7.55;3.45;;;;;;;;;;4924438;29;20035;-85
2023/05/26 20:39:16;;;;;;;5.72;3.38;;;;;;;;;;4928746;29;20039;-83
2023/05/26 20:41:41;;;;;;;6.95;3.10;;;;;;;;;;4911361;29;20642;-83
2023/05/26 20:44:07;;;;;;;6.68;3.13;;;;;;;;;;4916833;29;20114;-84
2023/05/26 20:46:32;;;;;;;7.70;2.70;;;;;;;;;;4903798;29;20032;-84
2023/05/26 20:48:57;;;;;;;7.78;2.83;;;;;;;;;;4919302;29;20036;-83
2023/05/26 20:51:23;;;;;;;4.68;2.90;;;;;;;;;;4930273;29;20031;-83
2023/05/26 20:53:48;;;;;;;9.40;3.28;;;;;;;;;;4923322;29;20030;-84
2023/05/26 20:56:14;;;;;;;6.95;3.10;;;;;;;;;;4935756;29;20383;-85
2023/05/26 20:58:39;;;;;;;7.82;3.13;;;;;;;;;;4933495;29;20182;-84
2023/05/26 21:01:04;;;;;;;10.07;3.42;;;;;;;;;;4916923;29;20063;-85
2023/05/26 21:03:30;;;;;;;6.50;3.08;;;;;;;;;;4926539;29;20099;-86
2023/05/26 21:05:55;;;;;;;5.65;2.85;;;;;;;;;;4940359;29;20066;-85
2023/05/26 21:08:20;;;;;;;4.68;2.85;;;;;;;;;;4942355;29;20030;-85
2023/05/26 21:10:46;;;;;;;7.03;3.28;;;;;;;;;;4934341;29;20036;-84
2023/05/26 21:13:11;;;;;;;4.63;3.00;;;;;;;;;;4915502;29;20506;-83
2023/05/26 21:15:36;;;;;;;6.20;3.20;;;;;;;;;;4937009;29;20545;-84
2023/05/26 21:18:02;;;;;;;5.47;3.00;;;;;;;;;;4924506;29;20040;-84
2023/05/26 21:20:27;;;;;;;6.10;3.55;;;;;;;;;;4921723;29;20071;-83